Nearby METAR Reports


Data Updates Approximately Every Four Hours

METAR is the international standard code format for hourly surface weather observations which is analogous to the SA coding currently used in the US. The acronym roughly translates from French as Aviation Routine Weather Report. SPECI is merely the code name given to METAR formatted products which are issued on a special non-routine basis as dictated by changing meteorological conditions. The SPECI acronym roughly translates as Aviation Selected Special Weather Report.

KSLH - Cheboygan, Michigan, USA
Distance from station: W 9mi, 14km
Updated: 10/21/2018 3:35am
Partly cloudy
Partly cloudy
 Wind from WNW
Wind: WNW 9 mph , 15 km/h
Temperature: 32°F , 0°C
Wind Chill: 24°F , -4°C
Dew Point: 21°F , -6°C
Humidity: 64%
Barometer: 30.17 inHg , 1021.7 hPa
Clouds: Partly cloudy
Visibility: 10 miles , 16 km
Cloud details: Partly cloudy 3400 ft
2018/10/21 07:35 KSLH 210735Z AUTO 29008KT 10SM SCT034 00/M06 A3017 RMK AO2 T00001056
KMCD - Mackinac Island, Michigan, USA
Distance from station: NW 19mi, 31km
Updated: 10/21/2018 3:35am
Overcast
Overcast
 Wind from NW
Wind: NW 10 mph , 17 km/h, Gust: 17 mph , 28 km/h
Temperature: 32°F , 0°C
Wind Chill: 24°F , -4°C
Dew Point: 18°F , -8°C
Humidity: 55%
Barometer: 30.17 inHg , 1021.7 hPa
Clouds: Overcast
Visibility: 10 miles , 16 km
Cloud details: Overcast 3400 ft
2018/10/21 07:35 KMCD 210735Z AUTO 31009G15KT 10SM OVC034 00/M08 A3017 RMK AO2 T00001082
 
KPLN - Pellston, Michigan, USA
Distance from station: WSW 24mi, 38km
Updated: 10/21/2018 2:54am
Overcast
Overcast
 Wind from NNW
Wind: NNW 10 mph , 17 km/h
Temperature: 34°F , 1°C
Wind Chill: 26°F , -3°C
Dew Point: 21°F , -6°C
Humidity: 60%
Barometer: 30.19 inHg , 1022.4 hPa
Clouds: Overcast
Visibility: 10 miles , 16 km
Cloud details: Overcast 3800 ft
2018/10/21 06:54 KPLN 210654Z AUTO 33009KT 10SM OVC038 01/M06 A3019 RMK AO2 SLP231 T00111056
KPZQ - Rogers City, Michigan, USA
Distance from station: SE 31mi, 50km
Updated: 10/21/2018 3:35am
Overcast
Overcast
 Wind from NNW
Wind: NNW 10 mph , 17 km/h, Gust: 20 mph , 31 km/h
Temperature: 34°F , 1°C
Wind Chill: 26°F , -3°C
Dew Point: 25°F , -4°C
Humidity: 70%
Barometer: 30.17 inHg , 1021.7 hPa
Clouds: Overcast
Visibility: 10 miles , 16 km
Cloud details: Overcast 3300 ft
2018/10/21 07:35 KPZQ 210735Z AUTO 34009G17KT 10SM OVC033 01/M04 A3017 RMK AO2 T00131045
 
KMGN - Harbor Springs, Michigan, USA
Distance from station: WSW 32mi, 52km
Updated: 10/21/2018 3:35am
Overcast
Overcast
 Wind from NW
Wind: NW 5 mph , 7 km/h
Temperature: 34°F , 1°C
Wind Chill: 29°F , -2°C
Dew Point: 23°F , -5°C
Humidity: 65%
Barometer: 30.18 inHg , 1022 hPa
Clouds: Overcast
Visibility: 10 miles , 16 km
Cloud details: Overcast 3600 ft
2018/10/21 07:35 KMGN 210735Z AUTO 31004KT 10SM OVC036 01/M05 A3018 RMK AO2 T00101047
KDRM - Drummond Is, Michigan, USA
Distance from station: NE 36mi, 59km
Updated: 10/21/2018 3:35am
Overcast
Overcast
 Wind from NW
Wind: NW 3 mph , 6 km/h
Temperature: 32°F , 0°C
Dew Point: 19°F , -7°C
Humidity: 60%
Barometer: 30.15 inHg , 1021 hPa
Clouds: Overcast
Visibility: 10 miles , 16 km
Cloud details: Overcast 3600 ft
2018/10/21 07:35 KDRM 210735Z AUTO 31003KT 10SM OVC036 00/M07 A3015 RMK AO2 T00001071
 
KCIU - Chippewa Intl, Michigan, USA
Distance from station: N 41mi, 66km
Updated: 10/21/2018 2:56am
Light snow, Overcast
Light snow, Overcast
 Wind from NW
Wind: NW 7 mph , 11 km/h
Temperature: 30°F , -1°C
Wind Chill: 23°F , -5°C
Dew Point: 27°F , -3°C
Humidity: 86%
Barometer: 30.16 inHg , 1021.3 hPa
Summary: Light Snow
Clouds: Overcast
Visibility: 8 miles , 13 km
Cloud details: Overcast 2400 ft
2018/10/21 06:56 KCIU 210656Z AUTO 32006KT 8SM -SN OVC024 M01/M03 A3016 RMK AO2 UPE17SNB17 SLP244 P0000 T10111028 FZRANO
KGLR - Gaylord, Michigan, USA
Distance from station: SSW 48mi, 77km
Updated: 10/21/2018 3:45am
Overcast
Overcast
 Wind from varies
Wind: varies 6 mph , 9 km/h
Temperature: 30°F , -1°C
Wind Chill: 24°F , -4°C
Dew Point: 25°F , -4°C
Humidity: 80%
Barometer: 30.15 inHg , 1021 hPa
Clouds: Overcast
Visibility: 10 miles , 16 km
Cloud details: Few Clouds 2100 ft
Mostly cloudy 2800 ft
Overcast 3800 ft
2018/10/21 07:45 KGLR 210745Z AUTO VRB05KT 10SM FEW021 BKN028 OVC038 M01/M04 A3015 RMK AO2 T10111039
 
KCVX - Charlevoix, Michigan, USA
Distance from station: WSW 52mi, 83km
Updated: 10/21/2018 3:35am
Overcast
Overcast
 Wind from NNW
Wind: NNW 12 mph , 19 km/h, Gust: 18 mph , 30 km/h
Temperature: 36°F , 2°C
Wind Chill: 28°F , -2°C
Dew Point: 28°F , -2°C
Humidity: 75%
Barometer: 30.22 inHg , 1023.4 hPa
Clouds: Overcast
Visibility: 10 miles , 16 km
Cloud details: Partly cloudy 2400 ft
Partly cloudy 3100 ft
Overcast 4000 ft
2018/10/21 07:35 KCVX 210735Z AUTO 34010G16KT 10SM SCT024 SCT031 OVC040 02/M02 A3022 RMK AO2 T00151019
KANJ - Sault Ste Marie, Michigan, USA
Distance from station: N 56mi, 89km
Updated: 10/21/2018 2:55am
Overcast
Overcast
 Wind from NNW
Wind: NNW 9 mph , 15 km/h
Temperature: 34°F , 1°C
Wind Chill: 27°F , -3°C
Dew Point: 21°F , -6°C
Humidity: 60%
Barometer: 30.15 inHg , 1021 hPa
Clouds: Overcast
Visibility: 10 miles , 16 km
Cloud details: Overcast 3300 ft
2018/10/21 06:55 KANJ 210655Z AUTO 33008KT 10SM OVC033 01/M06 A3015 RMK AO2 SLP217 T00061061
 
KAPN - Alpena, Michigan, USA
Distance from station: SE 56mi, 89km
Updated: 10/21/2018 2:54am
Overcast
Overcast
 Wind from NW
Wind: NW 7 mph , 11 km/h
Temperature: 36°F , 2°C
Wind Chill: 30°F , -1°C
Dew Point: 23°F , -5°C
Humidity: 60%
Barometer: 30.15 inHg , 1021 hPa
Clouds: Overcast
Visibility: 10 miles , 16 km
Cloud details: Overcast 3700 ft
2018/10/21 06:54 KAPN 210654Z AUTO 31006KT 10SM OVC037 02/M05 A3015 RMK AO2 SLP216 T00171050
CYAM - Sault Ste Marie, Ontario, Canada
Distance from station: N 56mi, 90km
Updated: 10/21/2018 3:23am
Light snow, Showers, Overcast
Light snow, Showers, Overcast
 Wind from NNW
Wind: NNW 9 mph , 15 km/h
Temperature: 32°F , 0°C
Wind Chill: 24°F , -4°C
Dew Point: 21°F , -6°C
Humidity: 64%
Barometer: 30.16 inHg , 1021.3 hPa
Summary: Light snow, Showers
Clouds: Overcast
Visibility: 20 miles , 32 km
Cloud details: Partly cloudy 2600 ft
Overcast 3400 ft
2018/10/21 07:23 CYAM 210723Z 34008KT 300V010 20SM -SHSN SCT026 OVC034 00/M06 A3016 RMK CU3SC5 SLP223
 
KSJX - Beaver Island, Michigan, USA
Distance from station: W 60mi, 96km
Updated: 10/21/2018 3:37am
Overcast
Overcast
 Wind from NW
Wind: NW 5 mph , 7 km/h
Temperature: 34°F , 1°C
Wind Chill: 29°F , -2°C
Dew Point: 27°F , -3°C
Humidity: 75%
Barometer: 30.20 inHg , 1022.7 hPa
Clouds: Overcast
Visibility: 10 miles , 16 km
Cloud details: Mostly cloudy 2800 ft
Overcast 3500 ft
2018/10/21 07:37 KSJX 210737Z AUTO 32004KT 10SM BKN028 OVC035 01/M03 A3020 RMK AO2 T00141035
KACB - Bellaire, Michigan, USA
Distance from station: SW 63mi, 102km
Updated: 10/21/2018 3:35am
Overcast
Overcast
 Wind from calm
Wind: Calm
Temperature: 36°F , 2°C
Dew Point: 27°F , -3°C
Humidity: 70%
Barometer: 30.20 inHg , 1022.7 hPa
Clouds: Overcast
Visibility: 10 miles , 16 km
Cloud details: Overcast 4000 ft
2018/10/21 07:35 KACB 210735Z AUTO 00000KT 10SM OVC040 02/M03 A3020 RMK AO2 T00181028
 
CWNL - Great Duck Island, Ontario, Canada
Distance from station: E 66mi, 106km
Updated: 10/21/2018 3:00am

 Wind from NNW
Wind: NNW 9 mph , 15 km/h, Gust: 18 mph , 30 km/h
Temperature: 34°F , 1°C
Wind Chill: 27°F , -3°C
Dew Point: 23°F , -5°C
Humidity: 65%
2018/10/21 07:00 CWNL 210700Z AUTO 34008G16KT 01/M05 RMK AO1 T00111048 52021
KERY - Newberry, Michigan, USA
Distance from station: NW 69mi, 112km
Updated: 10/21/2018 3:35am
Overcast
Overcast
 Wind from NNW
Wind: NNW 3 mph , 6 km/h
Temperature: 30°F , -1°C
Dew Point: 30°F , -1°C
Humidity: 100%
Barometer: 30.18 inHg , 1022 hPa
Clouds: Overcast
Visibility: 10 miles , 16 km
Cloud details: Partly cloudy 2300 ft
Overcast 3000 ft
2018/10/21 07:35 KERY 210735Z AUTO 33003KT 10SM SCT023 OVC030 M01/M01 A3018 RMK AO2 T10101014
 
KGOV - Grayling Af, Michigan, USA
Distance from station: SSW 70mi, 113km
Updated: 10/21/2018 3:18am
Overcast
Overcast
 Wind from NW
Wind: NW 5 mph , 7 km/h
Temperature: 30°F , -1°C
Wind Chill: 25°F , -4°C
Dew Point: 28°F , -2°C
Humidity: 93%
Barometer: 30.17 inHg , 1021.7 hPa
Clouds: Overcast
Visibility: 9 miles , 14 km
Cloud details: Partly cloudy 1800 ft
Overcast 3700 ft
2018/10/21 07:18 KGOV 210718Z AUTO 31004KT 9SM SCT018 OVC037 M01/M02 A3017 RMK AO2 SLP235 $